sensor_id;sensor_type;location;lat;lon;timestamp;temperature;humidity
13591;DHT22;6866;50.778;7.206;2022-08-11T00:01:08;21.40;43.80
13591;DHT22;6866;50.778;7.206;2022-08-11T00:03:34;21.50;43.90
13591;DHT22;6866;50.778;7.206;2022-08-11T00:06:00;21.40;44.30
13591;DHT22;6866;50.778;7.206;2022-08-11T00:08:30;21.40;44.40
13591;DHT22;6866;50.778;7.206;2022-08-11T00:11:00;21.30;44.30
13591;DHT22;6866;50.778;7.206;2022-08-11T00:13:38;21.20;44.70
13591;DHT22;6866;50.778;7.206;2022-08-11T00:16:20;21.20;44.70
13591;DHT22;6866;50.778;7.206;2022-08-11T00:18:52;21.10;44.80
13591;DHT22;6866;50.778;7.206;2022-08-11T00:21:19;21.00;45.30
13591;DHT22;6866;50.778;7.206;2022-08-11T00:24:00;21.00;45.30
13591;DHT22;6866;50.778;7.206;2022-08-11T00:26:27;21.00;45.50
13591;DHT22;6866;50.778;7.206;2022-08-11T00:28:53;20.90;45.70
13591;DHT22;6866;50.778;7.206;2022-08-11T00:31:29;20.90;45.90
13591;DHT22;6866;50.778;7.206;2022-08-11T00:33:57;20.80;46.00
13591;DHT22;6866;50.778;7.206;2022-08-11T00:36:37;20.70;46.10
13591;DHT22;6866;50.778;7.206;2022-08-11T00:39:05;20.80;46.80
13591;DHT22;6866;50.778;7.206;2022-08-11T00:44:41;20.60;46.80
13591;DHT22;6866;50.778;7.206;2022-08-11T00:47:14;20.50;46.70
13591;DHT22;6866;50.778;7.206;2022-08-11T00:55:57;20.30;47.50
13591;DHT22;6866;50.778;7.206;2022-08-11T00:58:58;20.40;47.50
13591;DHT22;6866;50.778;7.206;2022-08-11T01:10:06;19.80;48.70
13591;DHT22;6866;50.778;7.206;2022-08-11T01:35:19;19.40;51.20
13591;DHT22;6866;50.778;7.206;2022-08-11T01:38:23;19.40;50.70
13591;DHT22;6866;50.778;7.206;2022-08-11T01:47:08;19.20;50.60
13591;DHT22;6866;50.778;7.206;2022-08-11T01:53:07;19.10;50.70
13591;DHT22;6866;50.778;7.206;2022-08-11T01:58:39;19.00;50.00
13591;DHT22;6866;50.778;7.206;2022-08-11T02:04:05;19.10;49.50
13591;DHT22;6866;50.778;7.206;2022-08-11T02:09:44;18.90;50.50
13591;DHT22;6866;50.778;7.206;2022-08-11T02:12:28;18.70;50.70
13591;DHT22;6866;50.778;7.206;2022-08-11T02:20:56;18.60;51.40
13591;DHT22;6866;50.778;7.206;2022-08-11T02:23:51;18.70;51.10
13591;DHT22;6866;50.778;7.206;2022-08-11T02:31:24;18.40;51.90
13591;DHT22;6866;50.778;7.206;2022-08-11T02:34:18;18.50;51.80
13591;DHT22;6866;50.778;7.206;2022-08-11T02:37:09;18.30;52.10
13591;DHT22;6866;50.778;7.206;2022-08-11T02:39:45;18.20;52.30
13591;DHT22;6866;50.778;7.206;2022-08-11T02:48:05;18.10;52.70
13591;DHT22;6866;50.778;7.206;2022-08-11T02:56:36;18.00;53.40
13591;DHT22;6866;50.778;7.206;2022-08-11T03:05:50;17.90;53.40
13591;DHT22;6866;50.778;7.206;2022-08-11T03:08:37;17.90;53.70
13591;DHT22;6866;50.778;7.206;2022-08-11T03:11:14;18.00;52.60
13591;DHT22;6866;50.778;7.206;2022-08-11T03:17:35;17.70;54.50
13591;DHT22;6866;50.778;7.206;2022-08-11T03:25:35;17.70;54.30
13591;DHT22;6866;50.778;7.206;2022-08-11T03:33:48;17.50;55.00
13591;DHT22;6866;50.778;7.206;2022-08-11T03:48:19;17.30;55.90
13591;DHT22;6866;50.778;7.206;2022-08-11T03:51:22;17.10;56.10
13591;DHT22;6866;50.778;7.206;2022-08-11T04:03:03;17.10;56.50
13591;DHT22;6866;50.778;7.206;2022-08-11T04:05:48;17.00;56.90
13591;DHT22;6866;50.778;7.206;2022-08-11T04:14:31;17.10;56.40
13591;DHT22;6866;50.778;7.206;2022-08-11T04:26:36;17.00;57.20
13591;DHT22;6866;50.778;7.206;2022-08-11T04:44:13;17.00;56.40
13591;DHT22;6866;50.778;7.206;2022-08-11T04:49:34;17.40;55.40
13591;DHT22;6866;50.778;7.206;2022-08-11T04:56:17;17.20;56.30
13591;DHT22;6866;50.778;7.206;2022-08-11T04:59:27;17.40;55.80
13591;DHT22;6866;50.778;7.206;2022-08-11T05:13:33;17.40;55.10
13591;DHT22;6866;50.778;7.206;2022-08-11T05:16:22;17.50;55.30
13591;DHT22;6866;50.778;7.206;2022-08-11T05:19:18;17.60;54.90
13591;DHT22;6866;50.778;7.206;2022-08-11T05:22:02;17.70;54.80
13591;DHT22;6866;50.778;7.206;2022-08-11T05:24:55;17.80;54.50
13591;DHT22;6866;50.778;7.206;2022-08-11T05:28:02;17.80;54.50
13591;DHT22;6866;50.778;7.206;2022-08-11T05:30:48;17.90;54.30
13591;DHT22;6866;50.778;7.206;2022-08-11T05:33:37;18.00;54.00
13591;DHT22;6866;50.778;7.206;2022-08-11T05:36:30;18.10;53.90
13591;DHT22;6866;50.778;7.206;2022-08-11T05:39:12;18.20;54.20
13591;DHT22;6866;50.778;7.206;2022-08-11T05:41:58;18.20;54.00
13591;DHT22;6866;50.778;7.206;2022-08-11T05:44:47;18.30;53.50
13591;DHT22;6866;50.778;7.206;2022-08-11T05:47:33;18.50;53.20
13591;DHT22;6866;50.778;7.206;2022-08-11T05:50:21;18.60;53.10
13591;DHT22;6866;50.778;7.206;2022-08-11T05:53:09;18.70;52.60
13591;DHT22;6866;50.778;7.206;2022-08-11T05:55:56;18.90;52.60
13591;DHT22;6866;50.778;7.206;2022-08-11T05:58:43;19.20;52.10
13591;DHT22;6866;50.778;7.206;2022-08-11T06:01:26;19.90;50.90
13591;DHT22;6866;50.778;7.206;2022-08-11T06:03:55;21.10;48.80
13591;DHT22;6866;50.778;7.206;2022-08-11T06:06:56;24.90;40.70
13591;DHT22;6866;50.778;7.206;2022-08-11T06:09:29;27.10;35.00
13591;DHT22;6866;50.778;7.206;2022-08-11T06:12:05;28.40;32.80
13591;DHT22;6866;50.778;7.206;2022-08-11T06:14:33;29.30;30.90
13591;DHT22;6866;50.778;7.206;2022-08-11T06:16:59;30.40;32.00
13591;DHT22;6866;50.778;7.206;2022-08-11T06:19:33;30.40;28.80
13591;DHT22;6866;50.778;7.206;2022-08-11T06:22:01;30.10;28.50
13591;DHT22;6866;50.778;7.206;2022-08-11T06:24:27;30.70;28.50
13591;DHT22;6866;50.778;7.206;2022-08-11T06:26:54;31.20;28.20
13591;DHT22;6866;50.778;7.206;2022-08-11T06:29:21;31.30;28.10
13591;DHT22;6866;50.778;7.206;2022-08-11T06:32:01;32.10;26.60
13591;DHT22;6866;50.778;7.206;2022-08-11T06:34:39;32.00;26.50
13591;DHT22;6866;50.778;7.206;2022-08-11T06:40:10;31.70;25.80
13591;DHT22;6866;50.778;7.206;2022-08-11T06:45:31;33.70;24.40
13591;DHT22;6866;50.778;7.206;2022-08-11T06:48:00;32.90;24.40
13591;DHT22;6866;50.778;7.206;2022-08-11T06:50:27;33.60;26.60
13591;DHT22;6866;50.778;7.206;2022-08-11T06:53:15;33.10;24.20
13591;DHT22;6866;50.778;7.206;2022-08-11T06:55:44;33.00;24.30
13591;DHT22;6866;50.778;7.206;2022-08-11T06:58:48;34.10;23.60
13591;DHT22;6866;50.778;7.206;2022-08-11T07:01:43;33.40;23.10
13591;DHT22;6866;50.778;7.206;2022-08-11T07:04:17;33.00;23.40
13591;DHT22;6866;50.778;7.206;2022-08-11T07:09:54;31.80;24.50
13591;DHT22;6866;50.778;7.206;2022-08-11T07:12:50;32.60;23.60
13591;DHT22;6866;50.778;7.206;2022-08-11T07:15:36;32.10;24.10
13591;DHT22;6866;50.778;7.206;2022-08-11T07:18:19;32.50;24.20
13591;DHT22;6866;50.778;7.206;2022-08-11T07:21:19;33.50;23.50
13591;DHT22;6866;50.778;7.206;2022-08-11T07:24:06;34.20;22.80
13591;DHT22;6866;50.778;7.206;2022-08-11T07:26:53;34.50;22.40
13591;DHT22;6866;50.778;7.206;2022-08-11T07:29:42;34.70;22.10
13591;DHT22;6866;50.778;7.206;2022-08-11T07:32:15;34.30;21.90
13591;DHT22;6866;50.778;7.206;2022-08-11T07:34:47;34.50;22.10
13591;DHT22;6866;50.778;7.206;2022-08-11T07:37:16;35.40;22.20
13591;DHT22;6866;50.778;7.206;2022-08-11T07:39:46;34.40;22.20
13591;DHT22;6866;50.778;7.206;2022-08-11T07:42:19;35.80;21.40
13591;DHT22;6866;50.778;7.206;2022-08-11T07:44:46;35.00;21.30
13591;DHT22;6866;50.778;7.206;2022-08-11T07:47:31;35.40;21.60
13591;DHT22;6866;50.778;7.206;2022-08-11T07:50:16;35.60;21.30
13591;DHT22;6866;50.778;7.206;2022-08-11T07:53:02;35.20;21.20
13591;DHT22;6866;50.778;7.206;2022-08-11T07:55:28;35.00;21.70
13591;DHT22;6866;50.778;7.206;2022-08-11T07:57:56;35.20;22.00
13591;DHT22;6866;50.778;7.206;2022-08-11T08:00:50;35.10;21.60
13591;DHT22;6866;50.778;7.206;2022-08-11T08:03:35;35.20;21.70
13591;DHT22;6866;50.778;7.206;2022-08-11T08:06:21;36.50;20.50
13591;DHT22;6866;50.778;7.206;2022-08-11T08:09:07;35.70;21.00
13591;DHT22;6866;50.778;7.206;2022-08-11T08:11:51;35.40;21.30
13591;DHT22;6866;50.778;7.206;2022-08-11T08:14:36;35.70;20.30
13591;DHT22;6866;50.778;7.206;2022-08-11T08:17:21;34.80;21.30
13591;DHT22;6866;50.778;7.206;2022-08-11T08:20:11;35.50;21.10
13591;DHT22;6866;50.778;7.206;2022-08-11T08:22:37;35.70;20.40
13591;DHT22;6866;50.778;7.206;2022-08-11T08:25:04;35.30;20.90
13591;DHT22;6866;50.778;7.206;2022-08-11T08:27:30;34.40;20.90
13591;DHT22;6866;50.778;7.206;2022-08-11T08:29:57;35.70;21.00
13591;DHT22;6866;50.778;7.206;2022-08-11T08:32:42;35.40;20.50
13591;DHT22;6866;50.778;7.206;2022-08-11T08:35:12;35.00;20.90
13591;DHT22;6866;50.778;7.206;2022-08-11T08:37:38;35.70;20.60
13591;DHT22;6866;50.778;7.206;2022-08-11T08:40:08;35.60;20.30
13591;DHT22;6866;50.778;7.206;2022-08-11T08:42:53;35.20;20.70
13591;DHT22;6866;50.778;7.206;2022-08-11T08:45:20;35.40;20.40
13591;DHT22;6866;50.778;7.206;2022-08-11T08:48:15;35.70;20.50
13591;DHT22;6866;50.778;7.206;2022-08-11T08:50:48;36.00;20.80
13591;DHT22;6866;50.778;7.206;2022-08-11T08:53:36;36.00;20.30
13591;DHT22;6866;50.778;7.206;2022-08-11T08:56:06;36.30;20.50
13591;DHT22;6866;50.778;7.206;2022-08-11T08:58:36;36.90;20.50
13591;DHT22;6866;50.778;7.206;2022-08-11T09:01:02;37.00;21.10
13591;DHT22;6866;50.778;7.206;2022-08-11T09:03:28;36.80;19.70
13591;DHT22;6866;50.778;7.206;2022-08-11T09:05:55;36.90;19.00
13591;DHT22;6866;50.778;7.206;2022-08-11T09:08:21;36.70;19.20
13591;DHT22;6866;50.778;7.206;2022-08-11T09:10:48;35.90;19.80
13591;DHT22;6866;50.778;7.206;2022-08-11T09:13:35;36.10;19.70
13591;DHT22;6866;50.778;7.206;2022-08-11T09:16:04;36.30;20.00
13591;DHT22;6866;50.778;7.206;2022-08-11T09:18:31;36.20;19.40
13591;DHT22;6866;50.778;7.206;2022-08-11T09:20:57;35.50;19.70
13591;DHT22;6866;50.778;7.206;2022-08-11T09:23:24;35.10;20.70
13591;DHT22;6866;50.778;7.206;2022-08-11T09:26:09;35.10;21.10
13591;DHT22;6866;50.778;7.206;2022-08-11T09:28:54;34.20;19.80
13591;DHT22;6866;50.778;7.206;2022-08-11T09:31:21;33.20;21.20
13591;DHT22;6866;50.778;7.206;2022-08-11T09:33:49;32.90;20.60
13591;DHT22;6866;50.778;7.206;2022-08-11T09:36:17;33.20;21.60
13591;DHT22;6866;50.778;7.206;2022-08-11T09:39:19;33.40;20.30
13591;DHT22;6866;50.778;7.206;2022-08-11T09:42:04;33.70;21.40
13591;DHT22;6866;50.778;7.206;2022-08-11T09:44:33;33.80;20.50
13591;DHT22;6866;50.778;7.206;2022-08-11T09:47:11;33.80;20.30
13591;DHT22;6866;50.778;7.206;2022-08-11T09:49:42;33.90;20.30
13591;DHT22;6866;50.778;7.206;2022-08-11T09:52:09;34.50;20.20
13591;DHT22;6866;50.778;7.206;2022-08-11T09:54:35;34.40;20.80
13591;DHT22;6866;50.778;7.206;2022-08-11T09:57:01;34.00;20.90
13591;DHT22;6866;50.778;7.206;2022-08-11T09:59:46;33.60;21.20
13591;DHT22;6866;50.778;7.206;2022-08-11T10:02:12;33.60;21.00
13591;DHT22;6866;50.778;7.206;2022-08-11T10:04:43;32.90;21.10
13591;DHT22;6866;50.778;7.206;2022-08-11T10:07:14;33.40;21.30
13591;DHT22;6866;50.778;7.206;2022-08-11T10:09:45;33.30;20.70
13591;DHT22;6866;50.778;7.206;2022-08-11T10:12:27;33.20;21.50
13591;DHT22;6866;50.778;7.206;2022-08-11T10:15:01;33.20;21.80
13591;DHT22;6866;50.778;7.206;2022-08-11T10:17:48;33.40;21.60
13591;DHT22;6866;50.778;7.206;2022-08-11T10:20:37;33.60;21.50
13591;DHT22;6866;50.778;7.206;2022-08-11T10:23:03;33.60;21.60
13591;DHT22;6866;50.778;7.206;2022-08-11T10:25:48;33.40;20.90
13591;DHT22;6866;50.778;7.206;2022-08-11T10:28:34;33.50;21.30
13591;DHT22;6866;50.778;7.206;2022-08-11T10:31:02;33.90;20.90
13591;DHT22;6866;50.778;7.206;2022-08-11T10:33:48;33.90;20.90
13591;DHT22;6866;50.778;7.206;2022-08-11T10:36:34;34.10;21.10
13591;DHT22;6866;50.778;7.206;2022-08-11T10:39:06;33.90;20.90
13591;DHT22;6866;50.778;7.206;2022-08-11T10:41:33;33.90;21.10
13591;DHT22;6866;50.778;7.206;2022-08-11T10:44:18;33.60;20.70
13591;DHT22;6866;50.778;7.206;2022-08-11T10:46:45;33.00;21.40
13591;DHT22;6866;50.778;7.206;2022-08-11T10:49:31;32.40;20.90
13591;DHT22;6866;50.778;7.206;2022-08-11T10:51:57;32.70;21.20
13591;DHT22;6866;50.778;7.206;2022-08-11T10:54:42;32.40;21.10
13591;DHT22;6866;50.778;7.206;2022-08-11T10:57:27;32.60;21.10
13591;DHT22;6866;50.778;7.206;2022-08-11T11:00:12;33.10;21.60
13591;DHT22;6866;50.778;7.206;2022-08-11T11:02:41;33.30;21.10
13591;DHT22;6866;50.778;7.206;2022-08-11T11:05:28;32.80;20.80
13591;DHT22;6866;50.778;7.206;2022-08-11T11:08:08;33.20;21.20
13591;DHT22;6866;50.778;7.206;2022-08-11T11:10:57;33.00;20.60
13591;DHT22;6866;50.778;7.206;2022-08-11T11:13:24;32.90;21.30
13591;DHT22;6866;50.778;7.206;2022-08-11T11:16:10;33.00;21.10
13591;DHT22;6866;50.778;7.206;2022-08-11T11:19:10;32.50;21.30
13591;DHT22;6866;50.778;7.206;2022-08-11T11:21:37;32.90;21.50
13591;DHT22;6866;50.778;7.206;2022-08-11T11:27:43;32.60;21.00
13591;DHT22;6866;50.778;7.206;2022-08-11T11:30:13;32.40;21.40
13591;DHT22;6866;50.778;7.206;2022-08-11T11:35:36;32.40;21.10
13591;DHT22;6866;50.778;7.206;2022-08-11T11:38:09;32.60;20.70
13591;DHT22;6866;50.778;7.206;2022-08-11T11:40:35;32.80;21.30
13591;DHT22;6866;50.778;7.206;2022-08-11T11:43:02;33.00;21.40
13591;DHT22;6866;50.778;7.206;2022-08-11T11:45:28;33.10;20.50
13591;DHT22;6866;50.778;7.206;2022-08-11T11:47:55;33.00;20.70
13591;DHT22;6866;50.778;7.206;2022-08-11T11:50:25;32.70;20.70
13591;DHT22;6866;50.778;7.206;2022-08-11T11:52:52;32.40;21.20
13591;DHT22;6866;50.778;7.206;2022-08-11T11:55:22;32.10;21.10
13591;DHT22;6866;50.778;7.206;2022-08-11T11:57:49;31.90;21.40
13591;DHT22;6866;50.778;7.206;2022-08-11T12:00:33;32.30;21.70
13591;DHT22;6866;50.778;7.206;2022-08-11T12:03:17;32.40;20.80
13591;DHT22;6866;50.778;7.206;2022-08-11T12:05:44;32.10;21.20
13591;DHT22;6866;50.778;7.206;2022-08-11T12:08:11;32.00;21.20
13591;DHT22;6866;50.778;7.206;2022-08-11T12:13:09;32.40;21.20
13591;DHT22;6866;50.778;7.206;2022-08-11T12:15:54;32.10;21.10
13591;DHT22;6866;50.778;7.206;2022-08-11T12:18:19;32.30;20.60
13591;DHT22;6866;50.778;7.206;2022-08-11T12:20:45;32.60;20.90
13591;DHT22;6866;50.778;7.206;2022-08-11T12:23:14;32.80;20.30
13591;DHT22;6866;50.778;7.206;2022-08-11T12:25:59;32.60;20.00
13591;DHT22;6866;50.778;7.206;2022-08-11T12:29:04;32.50;20.30
13591;DHT22;6866;50.778;7.206;2022-08-11T12:31:33;32.00;21.00
13591;DHT22;6866;50.778;7.206;2022-08-11T12:34:08;32.30;20.30
13591;DHT22;6866;50.778;7.206;2022-08-11T12:36:37;32.70;20.50
13591;DHT22;6866;50.778;7.206;2022-08-11T12:39:11;32.80;20.10
13591;DHT22;6866;50.778;7.206;2022-08-11T12:41:38;32.90;20.30
13591;DHT22;6866;50.778;7.206;2022-08-11T12:44:26;32.60;20.80
13591;DHT22;6866;50.778;7.206;2022-08-11T12:47:29;32.70;20.70
13591;DHT22;6866;50.778;7.206;2022-08-11T12:50:16;32.40;20.20
13591;DHT22;6866;50.778;7.206;2022-08-11T12:53:00;32.70;20.50
13591;DHT22;6866;50.778;7.206;2022-08-11T12:55:26;32.80;20.50
13591;DHT22;6866;50.778;7.206;2022-08-11T12:58:12;32.90;20.70
13591;DHT22;6866;50.778;7.206;2022-08-11T13:00:45;32.80;20.90
13591;DHT22;6866;50.778;7.206;2022-08-11T13:03:32;32.80;20.70
13591;DHT22;6866;50.778;7.206;2022-08-11T13:06:18;32.70;20.90
13591;DHT22;6866;50.778;7.206;2022-08-11T13:08:44;32.70;20.80
13591;DHT22;6866;50.778;7.206;2022-08-11T13:11:10;32.50;20.70
13591;DHT22;6866;50.778;7.206;2022-08-11T13:13:54;32.40;20.50
13591;DHT22;6866;50.778;7.206;2022-08-11T13:16:30;32.70;20.80
13591;DHT22;6866;50.778;7.206;2022-08-11T13:18:59;32.60;20.90
13591;DHT22;6866;50.778;7.206;2022-08-11T13:21:26;32.80;21.20
13591;DHT22;6866;50.778;7.206;2022-08-11T13:23:53;32.60;21.00
13591;DHT22;6866;50.778;7.206;2022-08-11T13:26:22;32.40;20.50
13591;DHT22;6866;50.778;7.206;2022-08-11T13:28:48;32.70;20.90
13591;DHT22;6866;50.778;7.206;2022-08-11T13:31:16;32.40;20.80
13591;DHT22;6866;50.778;7.206;2022-08-11T13:33:45;32.20;21.10
13591;DHT22;6866;50.778;7.206;2022-08-11T13:36:11;32.30;21.10
13591;DHT22;6866;50.778;7.206;2022-08-11T13:38:42;32.60;21.10
13591;DHT22;6866;50.778;7.206;2022-08-11T13:41:08;33.00;20.80
13591;DHT22;6866;50.778;7.206;2022-08-11T13:43:53;33.00;20.50
13591;DHT22;6866;50.778;7.206;2022-08-11T13:46:21;33.20;20.40
13591;DHT22;6866;50.778;7.206;2022-08-11T13:48:54;33.00;20.70
13591;DHT22;6866;50.778;7.206;2022-08-11T13:51:21;32.90;20.70
13591;DHT22;6866;50.778;7.206;2022-08-11T13:53:56;32.70;20.50
13591;DHT22;6866;50.778;7.206;2022-08-11T13:56:23;32.70;20.80
13591;DHT22;6866;50.778;7.206;2022-08-11T13:58:49;32.40;20.60
13591;DHT22;6866;50.778;7.206;2022-08-11T14:01:17;32.80;20.80
13591;DHT22;6866;50.778;7.206;2022-08-11T14:03:44;32.90;20.70
13591;DHT22;6866;50.778;7.206;2022-08-11T14:06:12;32.90;20.70
13591;DHT22;6866;50.778;7.206;2022-08-11T14:08:39;32.80;20.50
13591;DHT22;6866;50.778;7.206;2022-08-11T14:11:06;32.80;20.60
13591;DHT22;6866;50.778;7.206;2022-08-11T14:13:51;32.80;19.90
13591;DHT22;6866;50.778;7.206;2022-08-11T14:16:31;32.40;20.30
13591;DHT22;6866;50.778;7.206;2022-08-11T14:19:01;32.30;20.70
13591;DHT22;6866;50.778;7.206;2022-08-11T14:21:30;32.60;20.70
13591;DHT22;6866;50.778;7.206;2022-08-11T14:24:16;32.70;20.80
13591;DHT22;6866;50.778;7.206;2022-08-11T14:26:42;32.70;20.20
13591;DHT22;6866;50.778;7.206;2022-08-11T14:29:21;32.60;20.50
13591;DHT22;6866;50.778;7.206;2022-08-11T14:31:56;32.50;20.60
13591;DHT22;6866;50.778;7.206;2022-08-11T14:34:26;32.50;20.30
13591;DHT22;6866;50.778;7.206;2022-08-11T14:36:57;32.60;19.60
13591;DHT22;6866;50.778;7.206;2022-08-11T14:39:32;32.80;20.00
13591;DHT22;6866;50.778;7.206;2022-08-11T14:42:04;32.60;19.80
13591;DHT22;6866;50.778;7.206;2022-08-11T14:44:55;32.70;20.30
13591;DHT22;6866;50.778;7.206;2022-08-11T14:47:42;32.70;19.80
13591;DHT22;6866;50.778;7.206;2022-08-11T14:50:12;32.50;19.80
13591;DHT22;6866;50.778;7.206;2022-08-11T14:52:40;32.30;20.00
13591;DHT22;6866;50.778;7.206;2022-08-11T14:55:07;32.20;20.30
13591;DHT22;6866;50.778;7.206;2022-08-11T14:57:51;32.20;20.10
13591;DHT22;6866;50.778;7.206;2022-08-11T15:00:18;32.30;20.20
13591;DHT22;6866;50.778;7.206;2022-08-11T15:02:45;32.20;19.80
13591;DHT22;6866;50.778;7.206;2022-08-11T15:05:31;32.00;20.30
13591;DHT22;6866;50.778;7.206;2022-08-11T15:07:58;32.10;20.10
13591;DHT22;6866;50.778;7.206;2022-08-11T15:10:24;32.10;19.90
13591;DHT22;6866;50.778;7.206;2022-08-11T15:12:50;32.20;20.10
13591;DHT22;6866;50.778;7.206;2022-08-11T15:15:17;32.20;20.10
13591;DHT22;6866;50.778;7.206;2022-08-11T15:18:04;32.10;20.30
13591;DHT22;6866;50.778;7.206;2022-08-11T15:20:31;32.20;20.40
13591;DHT22;6866;50.778;7.206;2022-08-11T15:23:15;32.10;20.40
13591;DHT22;6866;50.778;7.206;2022-08-11T15:26:22;32.10;20.20
13591;DHT22;6866;50.778;7.206;2022-08-11T15:29:08;32.10;20.50
13591;DHT22;6866;50.778;7.206;2022-08-11T15:31:53;32.20;20.50
13591;DHT22;6866;50.778;7.206;2022-08-11T15:34:38;32.20;20.10
13591;DHT22;6866;50.778;7.206;2022-08-11T15:37:24;32.10;20.20
13591;DHT22;6866;50.778;7.206;2022-08-11T15:40:10;32.10;20.20
13591;DHT22;6866;50.778;7.206;2022-08-11T15:45:43;32.30;20.20
13591;DHT22;6866;50.778;7.206;2022-08-11T15:49:02;32.40;20.00
13591;DHT22;6866;50.778;7.206;2022-08-11T15:51:06;32.20;20.30
13591;DHT22;6866;50.778;7.206;2022-08-11T15:53:38;32.20;20.00
13591;DHT22;6866;50.778;7.206;2022-08-11T15:56:04;32.30;20.00
13591;DHT22;6866;50.778;7.206;2022-08-11T15:58:31;32.20;19.90
13591;DHT22;6866;50.778;7.206;2022-08-11T16:01:16;32.20;19.80
13591;DHT22;6866;50.778;7.206;2022-08-11T16:04:05;32.10;20.20
13591;DHT22;6866;50.778;7.206;2022-08-11T16:06:52;32.10;20.20
13591;DHT22;6866;50.778;7.206;2022-08-11T16:09:25;32.10;20.10
13591;DHT22;6866;50.778;7.206;2022-08-11T16:11:53;32.20;20.50
13591;DHT22;6866;50.778;7.206;2022-08-11T16:14:19;32.10;21.20
13591;DHT22;6866;50.778;7.206;2022-08-11T16:17:05;32.10;21.20
13591;DHT22;6866;50.778;7.206;2022-08-11T16:19:32;32.10;20.50
13591;DHT22;6866;50.778;7.206;2022-08-11T16:21:58;32.10;20.60
13591;DHT22;6866;50.778;7.206;2022-08-11T16:24:25;32.10;20.50
13591;DHT22;6866;50.778;7.206;2022-08-11T16:26:51;32.10;20.60
13591;DHT22;6866;50.778;7.206;2022-08-11T16:29:20;32.00;20.30
13591;DHT22;6866;50.778;7.206;2022-08-11T16:31:48;31.90;20.40
13591;DHT22;6866;50.778;7.206;2022-08-11T16:34:36;31.90;20.20
13591;DHT22;6866;50.778;7.206;2022-08-11T16:37:22;31.80;20.10
13591;DHT22;6866;50.778;7.206;2022-08-11T16:40:08;31.80;20.50
13591;DHT22;6866;50.778;7.206;2022-08-11T16:42:34;31.70;20.00
13591;DHT22;6866;50.778;7.206;2022-08-11T16:45:19;31.60;20.60
13591;DHT22;6866;50.778;7.206;2022-08-11T16:48:06;31.70;20.80
13591;DHT22;6866;50.778;7.206;2022-08-11T16:50:32;31.70;20.40
13591;DHT22;6866;50.778;7.206;2022-08-11T16:52:58;31.60;20.80
13591;DHT22;6866;50.778;7.206;2022-08-11T16:55:24;31.60;20.60
13591;DHT22;6866;50.778;7.206;2022-08-11T16:57:50;31.50;20.50
13591;DHT22;6866;50.778;7.206;2022-08-11T17:00:55;31.40;20.40
13591;DHT22;6866;50.778;7.206;2022-08-11T17:03:23;31.50;20.70
13591;DHT22;6866;50.778;7.206;2022-08-11T17:06:09;31.40;20.40
13591;DHT22;6866;50.778;7.206;2022-08-11T17:08:53;31.30;20.40
13591;DHT22;6866;50.778;7.206;2022-08-11T17:11:48;31.30;20.50
13591;DHT22;6866;50.778;7.206;2022-08-11T17:14:45;31.30;20.60
13591;DHT22;6866;50.778;7.206;2022-08-11T17:17:15;31.20;20.70
13591;DHT22;6866;50.778;7.206;2022-08-11T17:19:49;31.20;20.50
13591;DHT22;6866;50.778;7.206;2022-08-11T17:22:17;31.20;20.50
13591;DHT22;6866;50.778;7.206;2022-08-11T17:25:05;31.20;20.80
13591;DHT22;6866;50.778;7.206;2022-08-11T17:27:32;31.20;20.80
13591;DHT22;6866;50.778;7.206;2022-08-11T17:30:03;31.10;20.60
13591;DHT22;6866;50.778;7.206;2022-08-11T17:35:20;31.00;21.30
13591;DHT22;6866;50.778;7.206;2022-08-11T17:38:07;30.80;21.50
13591;DHT22;6866;50.778;7.206;2022-08-11T17:40:39;30.80;21.70
13591;DHT22;6866;50.778;7.206;2022-08-11T17:43:26;30.80;21.50
13591;DHT22;6866;50.778;7.206;2022-08-11T17:46:11;30.60;21.80
13591;DHT22;6866;50.778;7.206;2022-08-11T17:48:56;30.60;21.80
13591;DHT22;6866;50.778;7.206;2022-08-11T17:51:22;30.50;22.10
13591;DHT22;6866;50.778;7.206;2022-08-11T17:54:08;30.50;22.10
13591;DHT22;6866;50.778;7.206;2022-08-11T17:56:54;30.50;22.30
13591;DHT22;6866;50.778;7.206;2022-08-11T17:59:39;30.40;22.20
13591;DHT22;6866;50.778;7.206;2022-08-11T18:02:21;30.40;22.30
13591;DHT22;6866;50.778;7.206;2022-08-11T18:05:07;30.30;22.60
13591;DHT22;6866;50.778;7.206;2022-08-11T18:07:33;30.10;22.80
13591;DHT22;6866;50.778;7.206;2022-08-11T18:10:19;30.10;22.80
13591;DHT22;6866;50.778;7.206;2022-08-11T18:13:03;30.00;22.90
13591;DHT22;6866;50.778;7.206;2022-08-11T18:15:48;30.00;23.20
13591;DHT22;6866;50.778;7.206;2022-08-11T18:18:33;29.90;23.20
13591;DHT22;6866;50.778;7.206;2022-08-11T18:21:17;29.80;23.30
13591;DHT22;6866;50.778;7.206;2022-08-11T18:24:07;29.70;23.60
13591;DHT22;6866;50.778;7.206;2022-08-11T18:26:55;29.60;23.80
13591;DHT22;6866;50.778;7.206;2022-08-11T18:29:41;29.60;23.80
13591;DHT22;6866;50.778;7.206;2022-08-11T18:32:28;29.50;23.90
13591;DHT22;6866;50.778;7.206;2022-08-11T18:35:14;29.40;24.30
13591;DHT22;6866;50.778;7.206;2022-08-11T18:37:59;29.30;24.70
13591;DHT22;6866;50.778;7.206;2022-08-11T18:40:44;29.20;24.80
13591;DHT22;6866;50.778;7.206;2022-08-11T18:43:30;29.20;25.00
13591;DHT22;6866;50.778;7.206;2022-08-11T18:46:15;29.00;25.00
13591;DHT22;6866;50.778;7.206;2022-08-11T18:49:01;29.00;25.20
13591;DHT22;6866;50.778;7.206;2022-08-11T18:51:50;28.90;25.30
13591;DHT22;6866;50.778;7.206;2022-08-11T18:54:37;28.80;25.30
13591;DHT22;6866;50.778;7.206;2022-08-11T18:57:23;28.70;25.50
13591;DHT22;6866;50.778;7.206;2022-08-11T19:00:08;28.60;25.50
13591;DHT22;6866;50.778;7.206;2022-08-11T19:02:54;28.50;25.90
13591;DHT22;6866;50.778;7.206;2022-08-11T19:05:38;28.40;26.20
13591;DHT22;6866;50.778;7.206;2022-08-11T19:08:30;28.30;26.50
13591;DHT22;6866;50.778;7.206;2022-08-11T19:11:17;28.20;26.60
13591;DHT22;6866;50.778;7.206;2022-08-11T19:14:02;28.10;26.90
13591;DHT22;6866;50.778;7.206;2022-08-11T19:16:47;27.90;27.10
13591;DHT22;6866;50.778;7.206;2022-08-11T19:19:32;27.80;27.40
13591;DHT22;6866;50.778;7.206;2022-08-11T19:22:17;27.70;27.60
13591;DHT22;6866;50.778;7.206;2022-08-11T19:25:04;27.60;28.30
13591;DHT22;6866;50.778;7.206;2022-08-11T19:27:49;27.50;28.90
13591;DHT22;6866;50.778;7.206;2022-08-11T19:30:34;27.30;28.30
13591;DHT22;6866;50.778;7.206;2022-08-11T19:33:19;27.40;28.30
13591;DHT22;6866;50.778;7.206;2022-08-11T19:36:05;27.30;28.80
13591;DHT22;6866;50.778;7.206;2022-08-11T19:38:49;27.10;28.50
13591;DHT22;6866;50.778;7.206;2022-08-11T19:41:35;27.10;29.20
13591;DHT22;6866;50.778;7.206;2022-08-11T19:44:21;27.00;29.60
13591;DHT22;6866;50.778;7.206;2022-08-11T19:47:06;26.80;29.90
13591;DHT22;6866;50.778;7.206;2022-08-11T19:49:51;26.80;30.00
13591;DHT22;6866;50.778;7.206;2022-08-11T19:52:37;26.60;30.60
13591;DHT22;6866;50.778;7.206;2022-08-11T19:55:25;26.50;30.90
13591;DHT22;6866;50.778;7.206;2022-08-11T19:58:11;26.30;31.40
13591;DHT22;6866;50.778;7.206;2022-08-11T20:00:56;26.20;31.90
13591;DHT22;6866;50.778;7.206;2022-08-11T20:03:40;26.00;32.40
13591;DHT22;6866;50.778;7.206;2022-08-11T20:06:25;25.90;33.00
13591;DHT22;6866;50.778;7.206;2022-08-11T20:09:10;25.90;33.30